createdAt,value
2022-10-29T00:01:05.667Z,83.33
2022-10-29T00:03:36.375Z,83.26
2022-10-29T00:06:07.778Z,83.30
2022-10-29T00:08:37.598Z,83.35
2022-10-29T00:11:15.724Z,83.48
2022-10-29T00:13:43.909Z,83.50
2022-10-29T00:16:15.533Z,83.71
2022-10-29T00:18:44.106Z,83.94
2022-10-29T00:21:18.644Z,83.93
2022-10-29T00:23:47.162Z,84.00
2022-10-29T00:26:15.700Z,84.05
2022-10-29T00:28:43.467Z,84.14
2022-10-29T00:31:18.408Z,84.15
2022-10-29T00:33:46.444Z,84.23
2022-10-29T00:36:19.014Z,84.23
2022-10-29T00:38:46.734Z,84.07
2022-10-29T00:41:18.844Z,84.01
2022-10-29T00:43:50.641Z,83.99
2022-10-29T00:46:34.002Z,84.00
2022-10-29T00:49:02.702Z,84.02
2022-10-29T00:51:32.436Z,84.00
2022-10-29T00:54:07.904Z,83.95
2022-10-29T00:56:40.777Z,84.00
2022-10-29T00:59:09.750Z,83.94
2022-10-29T01:01:39.233Z,83.95
2022-10-29T01:04:07.806Z,83.95
2022-10-29T01:06:35.615Z,83.98
2022-10-29T01:09:03.585Z,84.02
2022-10-29T01:12:15.833Z,84.05
2022-10-29T01:15:06.280Z,84.03
2022-10-29T01:17:58.994Z,84.02
2022-10-29T01:20:43.949Z,84.00
2022-10-29T01:23:19.886Z,83.96
2022-10-29T01:26:29.089Z,83.97
2022-10-29T01:29:38.015Z,84.02
2022-10-29T01:32:16.031Z,83.99
2022-10-29T01:34:51.884Z,83.99
2022-10-29T01:37:54.904Z,84.07
2022-10-29T01:40:42.962Z,84.12
2022-10-29T01:43:16.257Z,84.31
2022-10-29T01:45:52.329Z,84.59
2022-10-29T01:48:29.028Z,84.70
2022-10-29T01:50:58.039Z,84.97
2022-10-29T01:53:27.313Z,84.88
2022-10-29T01:55:54.838Z,84.87
2022-10-29T01:58:25.157Z,84.84
2022-10-29T02:01:10.588Z,84.76
2022-10-29T02:03:54.148Z,84.83
2022-10-29T02:07:00.270Z,84.80
2022-10-29T02:09:48.378Z,84.93
2022-10-29T02:12:21.606Z,85.00
2022-10-29T02:15:00.624Z,85.06
2022-10-29T02:17:31.748Z,85.09
2022-10-29T02:20:08.193Z,85.14
2022-10-29T02:22:36.048Z,85.28
2022-10-29T02:25:05.574Z,85.20
2022-10-29T02:27:33.256Z,85.27
2022-10-29T02:30:00.863Z,85.27
2022-10-29T02:32:28.350Z,85.27
2022-10-29T02:34:56.056Z,85.21
2022-10-29T02:37:23.691Z,85.19
2022-10-29T02:39:51.393Z,85.08
2022-10-29T02:42:18.893Z,85.04
2022-10-29T02:44:46.439Z,84.94
2022-10-29T02:47:14.133Z,84.99
2022-10-29T02:49:41.700Z,84.95
2022-10-29T02:52:09.328Z,84.95
2022-10-29T02:54:38.692Z,84.99
2022-10-29T02:57:06.912Z,85.06
2022-10-29T02:59:34.534Z,84.95
2022-10-29T03:02:02.319Z,84.96
2022-10-29T03:04:29.971Z,84.97
2022-10-29T03:06:57.681Z,84.94
2022-10-29T03:09:25.337Z,84.99
2022-10-29T03:11:53.176Z,84.90
2022-10-29T03:14:20.928Z,84.93
2022-10-29T03:16:48.512Z,84.90
2022-10-29T03:19:16.103Z,84.92
2022-10-29T03:21:43.862Z,84.95
2022-10-29T03:24:11.712Z,84.97
2022-10-29T03:26:39.396Z,84.93
2022-10-29T03:29:07.244Z,85.00
2022-10-29T03:31:35.353Z,85.05
2022-10-29T03:34:03.030Z,85.07
2022-10-29T03:36:30.762Z,85.08
2022-10-29T03:38:58.231Z,85.06
2022-10-29T03:41:25.960Z,85.09
2022-10-29T03:43:53.694Z,85.10
2022-10-29T03:46:21.403Z,85.10
2022-10-29T03:48:50.046Z,85.10
2022-10-29T03:51:17.614Z,85.07
2022-10-29T03:53:45.392Z,85.05
2022-10-29T03:56:13.182Z,84.97
2022-10-29T03:58:41.068Z,84.92
2022-10-29T04:01:10.055Z,84.93
2022-10-29T04:03:41.328Z,84.81
2022-10-29T04:06:15.328Z,84.76
2022-10-29T04:08:43.023Z,84.72
2022-10-29T04:11:14.104Z,84.72
2022-10-29T04:13:41.852Z,84.69
2022-10-29T04:16:09.508Z,84.68
2022-10-29T04:18:38.318Z,84.66
2022-10-29T04:23:08.067Z,84.65
2022-10-29T04:26:55.404Z,84.71
2022-10-29T04:28:42.994Z,84.73
2022-10-29T04:31:06.864Z,84.78
2022-10-29T04:33:34.713Z,84.77
2022-10-29T04:36:03.151Z,84.82
2022-10-29T04:38:30.704Z,84.79
2022-10-29T04:40:59.272Z,84.87
2022-10-29T04:43:27.995Z,84.87
2022-10-29T04:45:57.950Z,84.92
2022-10-29T04:48:27.308Z,84.90
2022-10-29T04:50:55.157Z,84.98
2022-10-29T04:53:23.114Z,84.96
2022-10-29T04:55:50.714Z,85.05
2022-10-29T04:58:19.751Z,85.08
2022-10-29T05:00:47.785Z,85.16
2022-10-29T05:03:15.735Z,85.11
2022-10-29T05:05:43.401Z,85.09
2022-10-29T05:08:11.723Z,85.12
2022-10-29T05:10:40.167Z,85.21
2022-10-29T05:13:11.618Z,85.31
2022-10-29T05:15:40.372Z,85.40
2022-10-29T05:18:09.501Z,85.59
2022-10-29T05:20:37.205Z,85.58
2022-10-29T05:23:07.487Z,85.68
2022-10-29T05:25:38.435Z,85.75
2022-10-29T05:28:11.716Z,85.83
2022-10-29T05:30:40.991Z,85.80
2022-10-29T05:33:09.643Z,85.92
2022-10-29T05:35:38.214Z,85.83
2022-10-29T05:38:06.362Z,85.97
2022-10-29T05:40:34.143Z,85.89
2022-10-29T05:43:02.014Z,85.86
2022-10-29T05:45:29.829Z,86.00
2022-10-29T05:48:01.081Z,86.61
2022-10-29T05:50:30.096Z,86.20
2022-10-29T05:53:01.349Z,85.82
2022-10-29T05:55:30.306Z,87.03
2022-10-29T05:58:04.126Z,86.76
2022-10-29T06:00:35.372Z,86.31
2022-10-29T06:03:03.369Z,85.35
2022-10-29T06:05:31.174Z,85.60
2022-10-29T06:08:00.712Z,85.22
2022-10-29T06:10:29.441Z,84.62
2022-10-29T06:12:57.086Z,83.89
2022-10-29T06:15:25.066Z,82.65
2022-10-29T06:17:52.700Z,81.83
2022-10-29T06:20:21.680Z,81.32
2022-10-29T06:22:58.070Z,80.23
2022-10-29T06:25:26.966Z,79.55
2022-10-29T06:27:59.944Z,78.56
2022-10-29T06:30:28.851Z,78.01
2022-10-29T06:32:56.905Z,77.38
2022-10-29T06:35:27.176Z,76.82
2022-10-29T06:37:56.271Z,76.59
2022-10-29T06:40:25.310Z,75.35
2022-10-29T06:43:05.230Z,74.63
2022-10-29T06:45:34.472Z,73.40
2022-10-29T06:48:04.923Z,73.30
2022-10-29T06:50:34.747Z,71.79
2022-10-29T06:53:05.920Z,72.62
2022-10-29T06:55:34.537Z,72.58
2022-10-29T06:58:09.266Z,72.74
2022-10-29T07:00:37.060Z,72.54
2022-10-29T07:03:05.076Z,72.52
2022-10-29T07:05:33.399Z,71.92
2022-10-29T07:08:01.998Z,71.47
2022-10-29T07:10:31.780Z,71.53
2022-10-29T07:12:59.631Z,71.66
2022-10-29T07:15:30.818Z,71.71
2022-10-29T07:18:04.399Z,70.46
2022-10-29T07:20:35.906Z,70.45
2022-10-29T07:23:04.157Z,69.53
2022-10-29T07:25:32.572Z,69.38
2022-10-29T07:28:19.912Z,69.85
2022-10-29T07:30:47.961Z,68.62
2022-10-29T07:33:16.212Z,68.87
2022-10-29T07:35:44.312Z,68.23
2022-10-29T07:38:12.838Z,67.76
2022-10-29T07:40:49.719Z,68.12
2022-10-29T07:43:18.854Z,67.62
2022-10-29T07:45:49.488Z,67.84
2022-10-29T07:48:19.022Z,67.62
2022-10-29T07:50:47.868Z,67.42
2022-10-29T07:53:15.645Z,67.35
2022-10-29T07:55:43.296Z,66.46
2022-10-29T07:58:12.412Z,65.87
2022-10-29T08:00:41.816Z,66.10
2022-10-29T08:03:11.597Z,65.78
2022-10-29T08:05:42.295Z,64.67
2022-10-29T08:08:09.266Z,64.97
2022-10-29T08:10:37.156Z,64.89
2022-10-29T08:13:06.168Z,64.47
2022-10-29T08:15:34.919Z,63.65
2022-10-29T08:18:08.504Z,64.18
2022-10-29T08:20:36.211Z,64.25
2022-10-29T08:23:03.837Z,64.07
2022-10-29T08:25:31.431Z,63.78
2022-10-29T08:28:02.380Z,62.00
2022-10-29T08:30:31.169Z,61.20
2022-10-29T08:32:59.507Z,62.51
2022-10-29T08:35:28.275Z,63.06
2022-10-29T08:37:56.042Z,62.52
2022-10-29T08:40:38.083Z,62.73
2022-10-29T08:43:44.589Z,62.58
2022-10-29T08:46:37.358Z,62.64
2022-10-29T08:49:15.880Z,62.14
2022-10-29T08:51:48.783Z,62.51
2022-10-29T08:54:30.203Z,61.25
2022-10-29T08:56:57.255Z,61.35
2022-10-29T08:59:29.202Z,60.67
2022-10-29T09:01:56.901Z,59.84
2022-10-29T09:04:36.544Z,60.43
2022-10-29T09:07:33.977Z,60.84
2022-10-29T09:10:22.059Z,60.51
2022-10-29T09:13:21.260Z,60.38
2022-10-29T09:16:12.375Z,60.12
2022-10-29T09:18:57.154Z,59.71
2022-10-29T09:21:45.307Z,59.88
2022-10-29T09:24:45.385Z,59.55
2022-10-29T09:27:23.963Z,59.12
2022-10-29T09:30:02.752Z,58.56
2022-10-29T09:32:35.773Z,58.33
2022-10-29T09:35:17.657Z,58.38
2022-10-29T09:37:54.760Z,57.60
2022-10-29T09:40:35.925Z,57.45
2022-10-29T09:43:17.687Z,57.48
2022-10-29T09:45:50.696Z,57.83
2022-10-29T09:48:23.846Z,58.30
2022-10-29T09:51:21.373Z,58.47
2022-10-29T09:53:51.206Z,57.78
2022-10-29T09:56:19.104Z,57.80
2022-10-29T09:58:52.104Z,57.26
2022-10-29T10:01:19.840Z,56.79
2022-10-29T10:03:52.587Z,57.08
2022-10-29T10:06:20.309Z,56.82
2022-10-29T10:09:05.419Z,57.14
2022-10-29T10:11:42.659Z,56.70
2022-10-29T10:14:24.664Z,56.16
2022-10-29T10:17:00.458Z,56.61
2022-10-29T10:19:31.872Z,56.31
2022-10-29T10:22:03.206Z,56.21
2022-10-29T10:24:36.917Z,56.43
2022-10-29T10:27:27.731Z,56.16
2022-10-29T10:30:09.785Z,56.51
2022-10-29T10:32:37.308Z,56.49
2022-10-29T10:35:25.932Z,56.05
2022-10-29T10:37:55.133Z,55.59
2022-10-29T10:40:24.763Z,55.48
2022-10-29T10:42:54.862Z,55.20
2022-10-29T10:45:30.874Z,54.84
2022-10-29T10:47:59.381Z,55.13
2022-10-29T10:50:30.856Z,55.12
2022-10-29T10:53:02.117Z,55.22
2022-10-29T10:55:38.617Z,55.24
2022-10-29T10:58:26.405Z,55.72
2022-10-29T11:01:02.934Z,55.57
2022-10-29T11:03:38.844Z,55.48
2022-10-29T11:06:26.082Z,55.19
2022-10-29T11:09:05.142Z,55.32
2022-10-29T11:11:37.566Z,54.82
2022-10-29T11:14:28.291Z,55.25
2022-10-29T11:16:59.405Z,55.20
2022-10-29T11:19:36.795Z,55.51
2022-10-29T11:22:22.099Z,55.17
2022-10-29T11:25:05.975Z,54.88
2022-10-29T11:27:44.877Z,54.42
2022-10-29T11:30:18.781Z,54.57
2022-10-29T11:35:46.589Z,54.84
2022-10-29T11:38:43.808Z,54.81
2022-10-29T11:41:42.642Z,53.80
2022-10-29T11:44:13.343Z,53.88
2022-10-29T11:46:53.220Z,54.02
2022-10-29T11:49:43.824Z,53.72
2022-10-29T11:52:21.050Z,53.79
2022-10-29T11:55:19.580Z,54.44
2022-10-29T11:57:53.213Z,53.77
2022-10-29T12:00:24.029Z,54.08
2022-10-29T12:03:08.719Z,54.50
2022-10-29T12:05:56.029Z,54.85
2022-10-29T12:08:40.863Z,55.20
2022-10-29T12:11:42.983Z,55.27
2022-10-29T12:14:39.685Z,55.31
2022-10-29T12:17:24.966Z,55.29
2022-10-29T12:20:04.054Z,55.21
2022-10-29T12:22:40.084Z,55.51
2022-10-29T12:25:27.851Z,55.56
2022-10-29T12:28:14.656Z,55.15
2022-10-29T12:30:47.766Z,55.48
2022-10-29T12:33:26.303Z,55.60
2022-10-29T12:38:40.449Z,55.83
2022-10-29T12:41:25.399Z,55.79
2022-10-29T12:44:01.464Z,55.57
2022-10-29T12:46:46.566Z,55.53
2022-10-29T12:49:32.264Z,55.75
2022-10-29T12:52:34.848Z,55.80
2022-10-29T12:55:06.510Z,55.70
2022-10-29T12:57:35.598Z,55.81
2022-10-29T13:00:33.169Z,55.74
2022-10-29T13:03:01.236Z,55.46
2022-10-29T13:05:37.145Z,55.94
2022-10-29T13:08:10.423Z,56.09
2022-10-29T13:10:51.316Z,56.15
2022-10-29T13:13:25.126Z,56.22
2022-10-29T13:16:19.043Z,56.26
2022-10-29T13:18:52.702Z,56.25
2022-10-29T13:22:00.354Z,56.41
2022-10-29T13:24:30.473Z,56.49
2022-10-29T13:27:21.725Z,56.68
2022-10-29T13:30:15.721Z,56.83
2022-10-29T13:32:43.752Z,56.82
2022-10-29T13:35:29.432Z,56.94
2022-10-29T13:38:15.152Z,56.84
2022-10-29T13:41:08.946Z,57.28
2022-10-29T13:43:39.595Z,57.45
2022-10-29T13:46:22.914Z,57.62
2022-10-29T13:48:53.153Z,57.69
2022-10-29T13:51:29.529Z,57.77
2022-10-29T13:54:18.466Z,57.98
2022-10-29T13:56:51.771Z,58.14
2022-10-29T13:59:37.105Z,58.37
2022-10-29T14:02:25.275Z,58.61
2022-10-29T14:04:58.283Z,58.83
2022-10-29T14:07:44.806Z,59.07
2022-10-29T14:10:41.055Z,59.22
2022-10-29T14:13:32.618Z,59.35
2022-10-29T14:16:08.496Z,59.67
2022-10-29T14:18:44.974Z,59.84
2022-10-29T14:21:25.439Z,60.03
2022-10-29T14:24:08.714Z,60.24
2022-10-29T14:26:40.126Z,60.45
2022-10-29T14:29:24.665Z,60.58
2022-10-29T14:32:22.815Z,60.75
2022-10-29T14:34:51.762Z,60.99
2022-10-29T14:37:30.764Z,61.11
2022-10-29T14:40:02.502Z,61.20
2022-10-29T14:42:38.944Z,61.35
2022-10-29T14:45:18.549Z,61.52
2022-10-29T14:47:54.643Z,61.66
2022-10-29T14:50:26.459Z,61.79
2022-10-29T14:53:11.314Z,62.00
2022-10-29T14:55:43.946Z,62.06
2022-10-29T14:58:15.896Z,62.19
2022-10-29T15:00:59.389Z,62.36
2022-10-29T15:03:30.607Z,62.52
2022-10-29T15:06:21.455Z,62.71
2022-10-29T15:09:00.750Z,62.83
2022-10-29T15:11:41.838Z,63.11
2022-10-29T15:14:38.209Z,63.41
2022-10-29T15:17:15.056Z,63.66
2022-10-29T15:19:45.826Z,63.74
2022-10-29T15:22:22.865Z,63.78
2022-10-29T15:24:52.335Z,64.11
2022-10-29T15:27:21.422Z,64.50
2022-10-29T15:29:49.601Z,64.62
2022-10-29T15:32:18.415Z,65.19
2022-10-29T15:34:56.126Z,65.38
2022-10-29T15:37:34.672Z,65.61
2022-10-29T15:40:11.615Z,65.90
2022-10-29T15:42:39.627Z,66.19
2022-10-29T15:45:23.825Z,66.53
2022-10-29T15:48:02.258Z,66.85
2022-10-29T15:50:42.568Z,67.09
2022-10-29T15:53:15.048Z,67.32
2022-10-29T15:55:44.970Z,67.71
2022-10-29T15:58:17.610Z,68.00
2022-10-29T16:00:45.680Z,68.17
2022-10-29T16:03:23.073Z,68.33
2022-10-29T16:05:58.613Z,68.67
2022-10-29T16:08:46.487Z,68.68
2022-10-29T16:11:19.520Z,68.86
2022-10-29T16:13:54.643Z,69.03
2022-10-29T16:16:22.903Z,69.18
2022-10-29T16:18:51.495Z,69.32
2022-10-29T16:21:22.727Z,69.62
2022-10-29T16:23:51.329Z,69.80
2022-10-29T16:26:22.996Z,69.98
2022-10-29T16:28:54.118Z,70.19
2022-10-29T16:31:26.556Z,70.38
2022-10-29T16:33:57.796Z,70.59
2022-10-29T16:36:25.663Z,70.86
2022-10-29T16:38:53.516Z,70.96
2022-10-29T16:41:21.283Z,71.19
2022-10-29T16:43:49.113Z,71.42
2022-10-29T16:46:16.808Z,71.65
2022-10-29T16:48:45.106Z,71.96
2022-10-29T16:51:12.901Z,72.11
2022-10-29T16:53:40.821Z,72.66
2022-10-29T16:56:09.302Z,72.91
2022-10-29T16:58:37.231Z,73.05
2022-10-29T17:01:07.935Z,73.17
2022-10-29T17:03:37.724Z,73.38
2022-10-29T17:06:08.789Z,73.54
2022-10-29T17:08:37.701Z,73.73
2022-10-29T17:11:10.092Z,73.90
2022-10-29T17:13:41.375Z,74.08
2022-10-29T17:16:15.732Z,74.18
2022-10-29T17:18:47.178Z,74.46
2022-10-29T17:21:16.076Z,74.74
2022-10-29T17:23:45.957Z,75.01
2022-10-29T17:26:14.829Z,75.10
2022-10-29T17:28:43.353Z,75.36
2022-10-29T17:31:11.310Z,75.56
2022-10-29T17:33:39.071Z,75.80
2022-10-29T17:36:11.386Z,75.92
2022-10-29T17:38:39.297Z,75.98
2022-10-29T17:41:07.255Z,76.25
2022-10-29T17:43:35.579Z,76.43
2022-10-29T17:46:04.102Z,76.40
2022-10-29T17:48:34.290Z,76.58
2022-10-29T17:51:02.989Z,76.73
2022-10-29T17:53:33.213Z,76.82
2022-10-29T17:56:01.447Z,76.99
2022-10-29T17:58:30.606Z,77.21
2022-10-29T18:01:09.098Z,77.55
2022-10-29T18:03:37.210Z,77.50
2022-10-29T18:06:08.591Z,77.60
2022-10-29T18:08:41.418Z,77.67
2022-10-29T18:11:19.602Z,77.74
2022-10-29T18:13:48.969Z,77.67
2022-10-29T18:16:20.119Z,77.84
2022-10-29T18:19:01.951Z,77.98
2022-10-29T18:21:26.123Z,78.15
2022-10-29T18:23:56.459Z,78.27
2022-10-29T18:26:30.184Z,78.44
2022-10-29T18:29:00.903Z,78.45
2022-10-29T18:31:31.102Z,78.56
2022-10-29T18:34:03.949Z,78.65
2022-10-29T18:36:32.324Z,78.65
2022-10-29T18:39:00.459Z,78.79
2022-10-29T18:41:28.147Z,78.96
2022-10-29T18:43:56.741Z,79.24
2022-10-29T18:46:25.128Z,79.34
2022-10-29T18:48:53.514Z,79.39
2022-10-29T18:51:25.532Z,79.45
2022-10-29T18:53:57.383Z,79.51
2022-10-29T18:56:27.804Z,79.66
2022-10-29T18:58:56.877Z,79.58
2022-10-29T19:01:33.446Z,79.59
2022-10-29T19:04:04.737Z,79.66
2022-10-29T19:06:36.118Z,79.71
2022-10-29T19:09:07.877Z,79.74
2022-10-29T19:11:36.286Z,79.67
2022-10-29T19:14:07.946Z,79.75
2022-10-29T19:16:35.757Z,79.72
2022-10-29T19:19:11.157Z,79.82
2022-10-29T19:21:39.073Z,79.95
2022-10-29T19:24:08.140Z,80.41
2022-10-29T19:26:36.011Z,80.42
2022-10-29T19:29:05.528Z,80.46
2022-10-29T19:31:35.518Z,80.41
2022-10-29T19:34:05.716Z,80.54
2022-10-29T19:36:35.192Z,80.78
2022-10-29T19:39:04.100Z,81.15
2022-10-29T19:41:32.291Z,81.05
2022-10-29T19:44:01.903Z,81.14
2022-10-29T19:46:30.635Z,81.17
2022-10-29T19:48:58.766Z,81.17
2022-10-29T19:51:27.040Z,81.17
2022-10-29T19:53:56.685Z,81.13
2022-10-29T19:56:24.331Z,81.30
2022-10-29T19:58:51.873Z,81.54
2022-10-29T20:01:19.666Z,81.50
2022-10-29T20:03:47.944Z,81.62
2022-10-29T20:06:17.100Z,81.78
2022-10-29T20:08:44.897Z,81.85
2022-10-29T20:11:12.474Z,81.92
2022-10-29T20:13:40.445Z,81.93
2022-10-29T20:16:18.217Z,81.98
2022-10-29T20:18:46.902Z,81.95
2022-10-29T20:21:15.670Z,81.96
2022-10-29T20:23:44.531Z,81.99
2022-10-29T20:26:12.721Z,82.07
2022-10-29T20:28:41.025Z,82.04
2022-10-29T20:31:29.780Z,81.99
2022-10-29T20:33:58.474Z,82.04
2022-10-29T20:36:29.856Z,81.97
2022-10-29T20:38:58.253Z,81.93
2022-10-29T20:41:26.614Z,81.88
2022-10-29T20:43:56.812Z,81.88
2022-10-29T20:46:25.973Z,81.90
2022-10-29T20:48:53.895Z,81.92
2022-10-29T20:51:22.542Z,81.98
2022-10-29T20:53:51.940Z,81.93
2022-10-29T20:56:22.261Z,81.85
2022-10-29T20:58:49.971Z,81.89
2022-10-29T21:01:20.454Z,81.95
2022-10-29T21:03:52.049Z,82.11
2022-10-29T21:06:20.362Z,82.36
2022-10-29T21:08:50.366Z,82.68
2022-10-29T21:11:20.363Z,82.80
2022-10-29T21:13:48.565Z,82.83
2022-10-29T21:16:22.428Z,83.15
2022-10-29T21:18:54.160Z,83.53
2022-10-29T21:21:22.710Z,83.65
2022-10-29T21:23:50.840Z,83.67
2022-10-29T21:26:21.748Z,83.79
2022-10-29T21:28:50.912Z,83.77
2022-10-29T21:31:19.816Z,83.76
2022-10-29T21:33:52.472Z,83.74
2022-10-29T21:36:20.983Z,83.79
2022-10-29T21:38:48.725Z,83.82
2022-10-29T21:41:17.676Z,83.81
2022-10-29T21:43:45.599Z,83.74
2022-10-29T21:46:13.492Z,83.77
2022-10-29T21:48:41.148Z,83.78
2022-10-29T21:51:13.858Z,83.76
2022-10-29T21:53:41.783Z,83.72
2022-10-29T21:56:12.764Z,83.62
2022-10-29T21:58:40.852Z,83.61
2022-10-29T22:01:12.504Z,83.67
2022-10-29T22:03:42.963Z,83.72
2022-10-29T22:06:14.834Z,83.69
2022-10-29T22:08:43.121Z,83.75
2022-10-29T22:11:12.280Z,84.05
2022-10-29T22:13:40.035Z,84.05
2022-10-29T22:16:09.014Z,84.17
2022-10-29T22:18:37.643Z,84.24
2022-10-29T22:21:15.388Z,84.35
2022-10-29T22:23:50.322Z,84.58
2022-10-29T22:26:20.285Z,84.49
2022-10-29T22:28:48.357Z,84.55
2022-10-29T22:31:18.372Z,84.50
2022-10-29T22:33:46.624Z,84.47
2022-10-29T22:36:24.769Z,84.41
2022-10-29T22:38:55.630Z,84.40
2022-10-29T22:41:25.200Z,84.46
2022-10-29T22:43:53.544Z,84.42
2022-10-29T22:46:22.114Z,84.42
2022-10-29T22:48:49.975Z,84.38
2022-10-29T22:51:21.841Z,84.37
2022-10-29T22:53:50.879Z,84.38
2022-10-29T22:56:25.135Z,84.43
2022-10-29T22:58:53.562Z,84.50
2022-10-29T23:01:26.125Z,84.52
2022-10-29T23:03:53.985Z,84.54
2022-10-29T23:06:23.901Z,84.48
2022-10-29T23:08:53.343Z,84.50
2022-10-29T23:11:24.970Z,84.45
2022-10-29T23:13:58.253Z,84.49
2022-10-29T23:16:29.340Z,84.50
2022-10-29T23:19:01.014Z,84.71
2022-10-29T23:21:29.254Z,84.75
2022-10-29T23:23:57.118Z,84.81
2022-10-29T23:26:25.783Z,84.80
2022-10-29T23:28:53.554Z,84.83
2022-10-29T23:31:24.175Z,84.81
2022-10-29T23:33:54.553Z,84.84
2022-10-29T23:36:24.074Z,84.85
2022-10-29T23:38:59.387Z,84.85
2022-10-29T23:41:29.944Z,85.22
2022-10-29T23:43:58.036Z,85.50
2022-10-29T23:46:25.724Z,85.47
2022-10-29T23:48:53.465Z,85.50
2022-10-29T23:51:21.549Z,85.58
2022-10-29T23:53:53.152Z,85.65
2022-10-29T23:56:19.574Z,85.73
2022-10-29T23:58:47.501Z,85.82
